Time;durP1;ratioP1;P1;durP2;ratioP2;P2;SDS_P1;SDS_P2;PMS_P1;PMS_P2;Temp;Humidity;BMP_temperature;BMP_pressure;BME280_temperature;BME280_humidity;BME280_pressure;Samples;Min_cycle;Max_cycle;Signal;HPM_P1;HPM_P2
2021/12/22 00:01:12;;;;;;;11.02;7.88;;;0.60;99.90;;;0.48;75.26;102332.78;4902056;29;20245;-71
2021/12/22 00:03:45;;;;;;;12.80;7.10;;;0.60;99.90;;;0.25;75.69;102322.78;4919876;29;20228;-70
2021/12/22 00:06:19;;;;;;;12.95;8.27;;;0.40;99.90;;;0.38;75.93;102332.53;4903316;29;20197;-71
2021/12/22 00:08:49;;;;;;;15.15;8.88;;;0.40;99.90;;;0.43;75.64;102329.56;4901153;29;20260;-70
2021/12/22 00:11:18;;;;;;;17.42;10.60;;;0.50;99.90;;;0.52;75.00;102323.63;4900294;29;20190;-70
2021/12/22 00:13:48;;;;;;;15.60;10.10;;;0.60;99.90;;;0.41;75.89;102320.81;4901056;29;20214;-71
2021/12/22 00:16:17;;;;;;;13.88;9.57;;;0.50;99.90;;;0.50;75.37;102335.31;4899846;29;20199;-71
2021/12/22 00:18:46;;;;;;;15.68;11.23;;;0.60;99.90;;;0.47;75.03;102338.22;4899237;29;20226;-71
2021/12/22 00:21:15;;;;;;;19.63;10.70;;;0.60;99.90;;;0.36;75.82;102341.56;4901560;29;20202;-71
2021/12/22 00:23:44;;;;;;;16.38;10.20;;;0.50;99.90;;;0.60;75.45;102336.41;4902647;29;20221;-71
2021/12/22 00:26:14;;;;;;;16.92;10.60;;;0.60;99.90;;;0.48;75.74;102337.25;4903440;29;20658;-71
2021/12/22 00:28:44;;;;;;;17.20;11.13;;;0.60;99.90;;;0.44;75.34;102342.75;4902326;29;20214;-71
2021/12/22 00:31:16;;;;;;;18.65;11.40;;;0.50;99.90;;;0.32;76.26;102337.41;4901163;29;20190;-71
2021/12/22 00:33:49;;;;;;;16.70;10.98;;;0.50;99.90;;;0.29;76.54;102335.78;4899413;29;20186;-72
2021/12/22 00:36:20;;;;;;;20.40;10.20;;;0.40;99.90;;;0.49;76.00;102336.28;4914226;29;20190;-70
2021/12/22 00:38:51;;;;;;;13.30;9.02;;;0.50;99.90;;;0.43;76.15;102341.09;4899221;29;20210;-71
2021/12/22 00:41:20;;;;;;;15.13;9.20;;;0.50;99.90;;;0.56;75.61;102350.91;4899824;29;20255;-73
2021/12/22 00:43:50;;;;;;;14.30;10.70;;;0.50;99.90;;;0.43;75.68;102341.09;4900490;29;20216;-74
2021/12/22 00:46:20;;;;;;;17.42;11.05;;;0.50;99.90;;;0.55;75.57;102349.19;4900741;29;20182;-71
2021/12/22 00:48:49;;;;;;;15.25;9.18;;;0.60;99.90;;;0.56;75.21;102349.09;4900612;29;20636;-72
2021/12/22 00:51:18;;;;;;;16.13;9.93;;;0.60;99.90;;;0.54;75.38;102347.47;4898532;29;20186;-72
2021/12/22 00:53:47;;;;;;;19.02;10.55;;;0.60;99.90;;;0.48;75.49;102351.44;4898918;29;20197;-71
2021/12/22 00:56:19;;;;;;;15.13;9.43;;;0.60;99.90;;;0.64;75.06;102349.44;4899021;29;20293;-73
2021/12/22 00:58:48;;;;;;;23.48;11.02;;;0.70;99.90;;;0.48;75.57;102350.56;4900147;29;20467;-73
2021/12/22 01:01:16;;;;;;;17.42;10.02;;;0.60;99.90;;;0.39;75.92;102357.34;4899225;29;20570;-72
2021/12/22 01:03:46;;;;;;;15.63;10.90;;;0.60;99.90;;;0.30;76.13;102361.47;4898998;29;20214;-73
2021/12/22 01:06:25;;;;;;;19.30;10.65;;;0.50;99.90;;;0.32;75.91;102351.59;4900532;29;20217;-72
2021/12/22 01:09:11;;;;;;;19.75;10.90;;;0.50;99.90;;;0.68;75.26;102352.72;4901195;29;20285;-71
2021/12/22 01:11:40;;;;;;;18.88;12.50;;;0.60;99.90;;;0.66;75.16;102352.84;4899654;29;20194;-73
2021/12/22 01:14:09;;;;;;;20.90;11.60;;;0.60;99.90;;;0.75;74.86;102354.91;4900812;29;20204;-73
2021/12/22 01:16:38;;;;;;;16.98;11.07;;;0.70;99.90;;;0.67;74.85;102351.06;4900583;29;20555;-74
2021/12/22 01:19:13;;;;;;;15.15;10.68;;;0.70;99.90;;;0.49;75.04;102354.91;4900350;29;20221;-72
2021/12/22 01:21:46;;;;;;;18.65;12.13;;;0.60;99.90;;;0.66;75.02;102357.34;4899995;29;20646;-72
2021/12/22 01:24:21;;;;;;;18.08;10.75;;;0.70;99.90;;;0.62;75.16;102358.50;4900048;29;20217;-72
2021/12/22 01:26:57;;;;;;;12.57;10.27;;;0.70;99.90;;;0.83;73.78;102357.03;4898732;29;20185;-71
2021/12/22 01:29:26;;;;;;;13.88;9.23;;;0.80;99.90;;;0.66;74.32;102362.66;4900599;29;20636;-71
2021/12/22 01:31:56;;;;;;;15.27;9.60;;;0.80;99.90;;;0.61;74.37;102365.63;4901988;29;20190;-73
2021/12/22 01:34:29;;;;;;;19.88;11.68;;;0.70;99.90;;;0.62;74.11;102362.03;4900261;29;20190;-71
2021/12/22 01:36:58;;;;;;;14.57;10.00;;;0.70;99.90;;;0.64;73.95;102359.22;4901294;29;20182;-73
2021/12/22 01:39:27;;;;;;;22.80;10.88;;;0.70;99.90;;;0.67;74.52;102365.22;4899151;29;20202;-70
2021/12/22 01:41:56;;;;;;;14.98;10.88;;;0.70;99.90;;;0.52;73.78;102360.91;4901090;29;20606;-73
2021/12/22 01:44:44;;;;;;;22.20;11.35;;;0.70;99.90;;;0.72;72.91;102372.91;4901396;29;20226;-72
2021/12/22 01:50:07;;;;;;;12.25;9.77;;;0.50;99.90;;;0.74;73.80;102365.66;4900480;29;20182;-71
2021/12/22 01:52:38;;;;;;;20.95;10.70;;;0.70;99.90;;;0.81;73.69;102378.47;4897959;29;20186;-71
2021/12/22 01:55:24;;;;;;;17.15;10.88;;;0.80;99.90;;;0.86;73.33;102371.03;4898881;29;20205;-71
2021/12/22 01:57:53;;;;;;;13.13;10.80;;;0.90;99.90;;;0.75;73.70;102372.69;4899118;29;20247;-73
2021/12/22 02:00:23;;;;;;;22.58;12.50;;;0.80;99.90;;;0.71;73.66;102368.53;4898819;29;20209;-71
2021/12/22 02:02:52;;;;;;;19.33;11.20;;;0.80;99.90;;;0.70;74.01;102369.47;4899913;29;20591;-73
2021/12/22 02:05:22;;;;;;;16.15;11.20;;;0.80;99.90;;;0.67;74.24;102375.03;4899861;29;20202;-71
2021/12/22 02:07:55;;;;;;;19.73;11.15;;;0.70;99.90;;;0.67;73.86;102369.69;4900643;29;20623;-72
2021/12/22 02:13:14;;;;;;;15.15;10.52;;;0.70;99.90;;;0.77;72.96;102357.47;4900188;29;20221;-74
2021/12/22 02:15:44;;;;;;;14.98;11.93;;;0.80;99.90;;;0.91;72.14;102351.19;4901465;29;20193;-72
2021/12/22 02:18:17;;;;;;;12.90;10.27;;;0.90;99.90;;;0.81;72.38;102351.84;4901295;29;20304;-72
2021/12/22 02:20:50;;;;;;;19.98;11.60;;;0.90;99.90;;;0.71;72.64;102349.88;4901713;29;20182;-71
2021/12/22 02:23:18;;;;;;;21.85;11.80;;;0.80;99.90;;;0.85;72.44;102352.47;4902803;29;20185;-71
2021/12/22 02:25:54;;;;;;;16.90;12.85;;;0.90;99.90;;;0.81;72.74;102350.97;4899755;29;20297;-70
2021/12/22 02:28:27;;;;;;;17.73;12.35;;;0.90;99.90;;;0.71;73.04;102345.41;4902384;29;20206;-73
2021/12/22 02:30:56;;;;;;;16.10;11.77;;;0.80;99.90;;;0.91;72.50;102348.53;4905118;29;20561;-71
2021/12/22 02:33:32;;;;;;;19.75;12.07;;;0.90;99.90;;;0.85;72.16;102352.47;4903440;29;20225;-71
2021/12/22 02:36:10;;;;;;;15.38;11.73;;;0.90;99.90;;;0.91;72.39;102353.88;4901057;29;20190;-71
2021/12/22 02:38:44;;;;;;;15.82;10.50;;;0.90;99.90;;;0.96;71.64;102344.59;4901138;29;20210;-72
2021/12/22 02:41:17;;;;;;;18.00;11.48;;;1.00;99.90;;;0.85;71.89;102345.34;4903363;29;20214;-71
2021/12/22 02:43:49;;;;;;;17.17;12.02;;;1.00;99.90;;;0.90;71.84;102344.16;4902887;29;20192;-72
2021/12/22 02:46:21;;;;;;;14.48;11.00;;;0.90;99.90;;;0.98;71.84;102348.00;4902737;29;20208;-71
2021/12/22 02:48:51;;;;;;;16.67;11.60;;;1.00;99.90;;;0.88;71.63;102341.59;4902811;29;20210;-72
2021/12/22 02:51:27;;;;;;;16.17;12.68;;;1.00;99.90;;;0.97;71.56;102350.78;4902811;29;20214;-72
2021/12/22 02:54:02;;;;;;;13.38;11.60;;;1.00;99.90;;;0.88;71.95;102347.78;4902672;29;20631;-71
2021/12/22 02:56:38;;;;;;;14.55;10.25;;;1.00;99.90;;;0.81;71.79;102351.84;4901213;29;20261;-71
2021/12/22 02:59:32;;;;;;;15.13;12.07;;;0.90;99.90;;;0.79;72.21;102347.53;4901946;29;20228;-73
2021/12/22 03:02:14;;;;;;;14.63;10.85;;;0.90;99.90;;;0.71;72.09;102349.88;4902617;29;20174;-73
2021/12/22 03:04:50;;;;;;;19.33;13.63;;;0.80;99.90;;;0.69;72.41;102349.13;4902614;29;20198;-71
2021/12/22 03:07:24;;;;;;;12.18;10.27;;;0.80;99.90;;;0.68;72.49;102350.06;4917017;29;20316;-72
2021/12/22 03:10:00;;;;;;;21.52;11.13;;;0.70;99.90;;;0.79;72.16;102343.06;4902870;29;20611;-71
2021/12/22 03:12:34;;;;;;;18.05;10.40;;;0.90;99.90;;;0.75;71.95;102351.38;4902236;29;20181;-71
2021/12/22 03:15:07;;;;;;;21.45;11.05;;;0.80;99.90;;;0.81;71.88;102343.84;4900851;29;20220;-72
2021/12/22 03:17:37;;;;;;;14.52;11.05;;;0.90;99.90;;;0.69;71.48;102344.66;4902831;29;20258;-71
2021/12/22 03:20:09;;;;;;;11.02;8.45;;;0.80;99.90;;;0.48;72.96;102337.25;4902367;29;20225;-73
2021/12/22 03:22:41;;;;;;;14.73;9.45;;;0.60;99.90;;;0.71;71.86;102341.88;4902646;29;20194;-73
2021/12/22 03:25:15;;;;;;;12.13;9.90;;;0.70;99.90;;;0.72;71.80;102340.94;4903302;29;20206;-74
2021/12/22 03:27:46;;;;;;;13.48;9.25;;;0.80;99.90;;;0.73;71.57;102343.47;4901140;29;20289;-70
2021/12/22 03:30:18;;;;;;;12.85;8.45;;;0.80;99.90;;;0.58;71.43;102339.19;4904347;29;20205;-72
2021/12/22 03:32:46;;;;;;;17.30;9.40;;;0.80;99.90;;;0.60;72.27;102347.06;4917941;29;20206;-72
2021/12/22 03:35:18;;;;;;;14.93;8.38;;;0.70;99.90;;;0.63;71.57;102350.38;4903395;29;20220;-73
2021/12/22 03:37:54;;;;;;;11.10;8.85;;;0.70;99.90;;;0.70;72.45;102348.16;4903763;29;20206;-72
2021/12/22 03:40:24;;;;;;;11.77;7.70;;;0.80;99.90;;;0.75;72.36;102343.38;4903671;29;20182;-71
2021/12/22 03:42:53;;;;;;;9.38;7.15;;;0.80;99.90;;;0.72;71.84;102340.94;4901971;29;20648;-72
2021/12/22 03:45:22;;;;;;;13.52;7.82;;;0.80;99.90;;;0.95;71.14;102348.22;4902584;29;20633;-72
2021/12/22 03:47:51;;;;;;;9.40;7.55;;;0.90;99.90;;;0.80;71.10;102344.78;4902537;29;20210;-71
2021/12/22 03:50:19;;;;;;;8.40;6.07;;;0.80;99.90;;;0.62;72.22;102345.19;4901690;29;20182;-72
2021/12/22 03:52:49;;;;;;;12.73;6.05;;;0.80;99.90;;;0.66;71.43;102349.34;4902385;29;20273;-74
2021/12/22 03:55:19;;;;;;;12.18;6.72;;;0.80;99.90;;;0.87;71.90;102339.91;4904692;29;20218;-72
2021/12/22 03:57:48;;;;;;;8.70;6.15;;;0.90;99.90;;;0.79;71.03;102343.06;4906464;29;20209;-72
2021/12/22 04:00:18;;;;;;;14.35;6.80;;;0.90;99.90;;;0.81;71.00;102340.31;4910063;29;20200;-71
2021/12/22 04:02:47;;;;;;;11.90;6.80;;;0.90;99.90;;;0.92;70.47;102334.25;4909361;29;20188;-71
2021/12/22 04:05:17;;;;;;;11.10;6.47;;;0.90;99.90;;;0.86;70.89;102335.53;4906610;29;20220;-73
2021/12/22 04:07:46;;;;;;;9.07;5.72;;;0.90;99.90;;;0.75;71.26;102336.25;4905861;29;20242;-71
2021/12/22 04:10:23;;;;;;;8.93;5.60;;;0.90;99.90;;;0.76;71.21;102326.44;4906760;29;20197;-72
2021/12/22 04:12:55;;;;;;;24.73;6.32;;;0.90;99.90;;;0.82;70.90;102326.03;4904855;29;20197;-71
2021/12/22 04:15:25;;;;;;;6.47;5.80;;;0.80;99.90;;;0.76;70.42;102318.44;4903768;29;20183;-72
2021/12/22 04:17:55;;;;;;;7.43;5.65;;;0.80;99.90;;;0.76;70.49;102321.13;4916847;29;20230;-71
2021/12/22 04:20:27;;;;;;;8.10;5.72;;;0.80;99.90;;;0.49;71.02;102322.97;4900789;29;20194;-70
2021/12/22 04:22:56;;;;;;;13.15;6.70;;;0.70;99.90;;;0.60;70.57;102320.44;4900042;29;20211;-72
2021/12/22 04:25:27;;;;;;;6.68;5.78;;;0.70;99.90;;;0.50;70.67;102330.00;4902354;29;20695;-70
2021/12/22 04:28:03;;;;;;;8.80;6.22;;;0.60;99.90;;;0.51;70.58;102329.03;4901047;29;20588;-73
2021/12/22 04:30:36;;;;;;;9.73;5.47;;;0.60;99.90;;;0.54;70.77;102320.84;4901315;29;20198;-71
2021/12/22 04:33:05;;;;;;;10.80;6.00;;;0.60;99.90;;;0.65;70.66;102319.19;4901018;29;20293;-71
2021/12/22 04:35:34;;;;;;;7.10;4.60;;;0.60;99.90;;;0.60;70.03;102320.44;4901539;29;20186;-73
2021/12/22 04:38:04;;;;;;;7.95;5.00;;;0.70;99.90;;;0.71;70.97;102331.22;4915779;29;20222;-72
2021/12/22 04:40:34;;;;;;;8.15;6.07;;;0.80;99.90;;;0.76;70.21;102321.13;4914415;29;20615;-72
2021/12/22 04:43:57;;;;;;;6.82;5.38;;;0.80;99.90;;;0.65;69.97;102319.19;4899099;29;20194;-71
2021/12/22 04:46:26;;;;;;;9.23;5.50;;;0.80;99.90;;;0.57;70.69;102320.66;4881147;29;20222;-71
2021/12/22 04:48:54;;;;;;;8.80;5.63;;;0.70;99.90;;;0.59;69.88;102324.03;4881736;29;20268;-72
2021/12/22 04:51:26;;;;;;;6.38;5.63;;;0.70;99.90;;;0.61;70.29;102328.34;4880915;29;20195;-71
2021/12/22 04:54:02;;;;;;;15.63;6.90;;;0.70;99.90;;;0.61;70.23;102323.00;4896456;29;20210;-70
2021/12/22 04:56:33;;;;;;;9.85;5.82;;;0.70;99.90;;;0.58;70.22;102333.84;4899938;29;20178;-72
2021/12/22 04:59:01;;;;;;;12.23;5.45;;;0.70;99.90;;;0.60;70.18;102323.09;4900234;29;20213;-73
2021/12/22 05:01:30;;;;;;;6.68;5.63;;;0.70;99.90;;;0.61;70.08;102327.47;4899108;29;20185;-71
2021/12/22 05:03:58;;;;;;;11.85;6.53;;;0.70;99.90;;;0.87;70.03;102330.06;4900512;29;20185;-74
2021/12/22 05:06:27;;;;;;;13.57;7.10;;;0.80;99.90;;;0.75;69.92;102330.06;4900828;29;20195;-74
2021/12/22 05:08:56;;;;;;;9.40;5.40;;;0.70;99.90;;;0.71;69.93;102328.56;4901069;29;20218;-72
2021/12/22 05:11:24;;;;;;;10.05;6.07;;;0.70;99.90;;;0.72;70.22;102327.63;4899444;29;20190;-73
2021/12/22 05:13:54;;;;;;;6.53;5.70;;;0.80;99.90;;;0.76;70.18;102327.31;4899776;29;20179;-71
2021/12/22 05:16:23;;;;;;;6.90;5.43;;;0.80;99.90;;;0.78;69.35;102328.03;4899902;29;20190;-73
2021/12/22 05:18:57;;;;;;;8.50;6.20;;;0.80;99.90;;;0.81;69.74;102329.66;4898031;29;20316;-75
2021/12/22 05:21:27;;;;;;;8.95;5.70;;;0.90;99.90;;;0.66;70.14;102331.53;4899749;29;20179;-73
2021/12/22 05:23:57;;;;;;;8.35;6.80;;;0.80;99.90;;;0.55;70.94;102322.56;4900127;29;20181;-71
2021/12/22 05:26:28;;;;;;;10.82;6.38;;;0.70;99.90;;;0.63;70.38;102325.59;4897966;29;20220;-71
2021/12/22 05:28:58;;;;;;;13.02;8.25;;;0.70;99.90;;;0.59;70.66;102321.38;4898267;29;20222;-73
2021/12/22 05:31:27;;;;;;;6.82;6.13;;;0.70;99.90;;;0.64;70.13;102316.59;4898936;29;20687;-70
2021/12/22 05:33:56;;;;;;;11.75;7.00;;;0.70;99.90;;;0.63;69.87;102321.06;4899223;29;20598;-73
2021/12/22 05:36:25;;;;;;;12.45;8.30;;;0.80;99.90;;;0.63;70.04;102315.75;4899698;29;20179;-73
2021/12/22 05:38:55;;;;;;;9.40;7.10;;;0.70;99.90;;;0.53;69.68;102324.47;4914246;29;20731;-72
2021/12/22 05:41:24;;;;;;;9.20;7.70;;;0.70;99.90;;;0.52;70.71;102320.09;4899949;29;20523;-72
2021/12/22 05:43:53;;;;;;;10.90;7.38;;;0.60;99.90;;;0.50;69.38;102328.19;4914530;29;20198;-72
2021/12/22 05:46:23;;;;;;;11.90;8.20;;;0.70;99.90;;;0.56;69.81;102324.25;4899257;29;20214;-71
2021/12/22 05:48:54;;;;;;;17.73;9.60;;;0.70;99.90;;;0.53;69.60;102319.16;4898469;29;20252;-72
2021/12/22 05:51:22;;;;;;;9.70;8.70;;;0.60;99.90;;;0.44;70.19;102318.78;4899200;29;20213;-72
2021/12/22 05:53:51;;;;;;;10.90;8.50;;;0.60;99.90;;;0.39;69.79;102317.38;4899401;29;20179;-72
2021/12/22 05:56:19;;;;;;;17.23;11.45;;;0.50;99.90;;;0.22;70.30;102318.53;4899600;29;20173;-72
2021/12/22 05:58:48;;;;;;;13.52;10.18;;;0.40;99.90;;;0.11;70.72;102310.38;4899455;29;20210;-73
2021/12/22 06:01:16;;;;;;;19.52;10.63;;;0.30;99.90;;;0.02;71.06;102318.09;4898596;29;20200;-73
2021/12/22 06:03:48;;;;;;;14.27;9.40;;;0.20;99.90;;;-0.13;71.16;102319.94;4903733;29;20229;-72
2021/12/22 06:06:16;;;;;;;21.73;11.80;;;0.10;99.90;;;-0.23;72.98;102314.38;4919123;29;20193;-71
2021/12/22 06:08:45;;;;;;;19.08;11.15;;;0.10;99.90;;;-0.26;72.60;102309.25;4918016;29;20225;-74
2021/12/22 06:11:13;;;;;;;19.35;11.45;;;0.00;99.90;;;-0.34;73.13;102318.69;4919471;29;20204;-71
2021/12/22 06:13:42;;;;;;;16.50;10.85;;;-0.10;99.90;;;-0.40;72.88;102308.41;4919313;29;20586;-72
2021/12/22 06:16:11;;;;;;;16.75;11.60;;;-0.10;99.90;;;-0.46;73.64;102310.53;4921373;29;20225;-71
2021/12/22 06:18:43;;;;;;;16.98;9.85;;;-0.20;99.90;;;-0.58;73.61;102308.63;4923863;29;20205;-72
2021/12/22 06:21:14;;;;;;;13.15;10.88;;;-0.30;99.90;;;-0.58;74.19;102316.59;4923762;29;20182;-73
2021/12/22 06:23:43;;;;;;;14.57;11.52;;;-0.30;99.90;;;-0.64;74.31;102314.34;4921246;29;20739;-73
2021/12/22 06:26:11;;;;;;;16.60;11.07;;;-0.40;99.90;;;-0.56;73.99;102321.81;4903409;29;20226;-74
2021/12/22 06:28:40;;;;;;;20.33;12.68;;;-0.40;99.90;;;-0.49;74.32;102321.34;4899783;29;20221;-73
2021/12/22 06:31:09;;;;;;;21.27;11.55;;;-0.30;99.90;;;-0.46;74.11;102323.81;4899457;29;20185;-72
2021/12/22 06:33:37;;;;;;;14.07;9.25;;;-0.30;99.90;;;-0.64;74.26;102324.97;4900853;29;20230;-72
2021/12/22 06:36:07;;;;;;;15.63;11.20;;;-0.30;99.90;;;-0.70;73.87;102330.66;4901211;29;20186;-71
2021/12/22 06:38:36;;;;;;;22.00;12.32;;;-0.40;99.90;;;-0.91;75.36;102324.84;4902473;29;20229;-71
2021/12/22 06:41:05;;;;;;;19.15;12.85;;;-0.50;1.00;;;-0.71;75.13;102333.41;5010827;23;20539;-66
2021/12/22 06:43:33;;;;;;;19.10;11.15;;;-0.50;1.00;;;-0.68;74.75;102336.75;4873374;29;20217;-66
2021/12/22 06:46:02;;;;;;;17.65;10.23;;;-0.50;1.00;;;-0.67;74.32;102327.81;4858570;29;20621;-66
2021/12/22 06:48:30;;;;;;;14.65;11.43;;;-0.50;1.00;;;-0.77;74.57;102333.78;4860422;29;20223;-66
2021/12/22 06:50:58;;;;;;;20.33;13.25;;;-0.50;1.00;;;-0.86;74.92;102332.53;4860154;29;20247;-67
2021/12/22 06:53:27;;;;;;;17.63;14.75;;;-0.60;1.00;;;-0.83;74.78;102326.19;4870861;23;21433;-70
2021/12/22 06:55:56;;;;;;;15.15;11.48;;;-0.50;1.00;;;-0.81;75.11;102325.13;4856781;29;20255;-69
2021/12/22 06:58:25;;;;;;;13.15;11.15;;;-0.60;1.00;;;-0.74;75.91;102321.19;4844671;29;20220;-67
2021/12/22 07:00:56;;;;;;;24.10;13.45;;;-0.50;1.00;;;-0.80;75.74;102323.34;4842168;29;20209;-69
2021/12/22 07:03:24;;;;;;;17.42;11.40;;;-0.50;99.90;;;-0.68;75.87;102325.25;4844430;29;20220;-69
2021/12/22 07:05:53;;;;;;;21.30;12.18;;;-0.50;99.90;;;-0.74;75.19;102325.63;4854455;29;20282;-70
2021/12/22 07:08:22;;;;;;;25.15;12.82;;;-0.50;99.90;;;-0.88;75.38;102323.81;4852655;29;20569;-69
2021/12/22 07:10:50;;;;;;;16.48;12.18;;;-0.60;99.90;;;-0.97;75.48;102332.38;4858479;29;20209;-70
2021/12/22 07:13:20;;;;;;;21.63;12.23;;;-0.60;99.90;;;-0.89;76.27;102330.94;4846408;29;20300;-70
2021/12/22 07:15:49;;;;;;;17.35;11.05;;;-0.60;99.90;;;-0.78;76.25;102326.78;4852145;29;20200;-70
2021/12/22 07:18:17;;;;;;;22.27;12.05;;;-0.60;99.90;;;-0.74;75.38;102331.81;4841764;29;20196;-69
2021/12/22 07:20:46;;;;;;;18.92;11.90;;;-0.50;99.90;;;-0.78;76.56;102332.94;4841452;29;20279;-69
2021/12/22 07:23:14;;;;;;;18.95;13.52;;;-0.50;99.90;;;-0.88;76.19;102327.34;4841656;29;20264;-69
2021/12/22 07:25:43;;;;;;;16.52;11.20;;;-0.60;99.90;;;-0.82;75.82;102331.41;4854524;29;20201;-67
2021/12/22 07:28:11;;;;;;;18.20;13.57;;;-0.60;99.90;;;-0.96;76.71;102331.38;4849086;29;20247;-69
2021/12/22 07:30:41;;;;;;;15.85;11.77;;;-0.60;99.90;;;-0.74;76.05;102333.59;4844744;29;20184;-69
2021/12/22 07:33:11;;;;;;;21.23;14.73;;;-0.60;99.90;;;-0.73;75.43;102330.88;4854795;29;20246;-68
2021/12/22 07:35:46;;;;;;;19.98;12.85;;;-0.50;99.90;;;-0.43;77.09;102328.94;4848574;29;20255;-69
2021/12/22 07:38:29;;;;;;;23.75;14.15;;;-0.40;99.90;;;-0.40;75.85;102333.22;4844188;29;20713;-69
2021/12/22 07:41:00;;;;;;;17.58;12.65;;;-0.30;99.90;;;-0.63;76.10;102329.31;4844375;29;20207;-69
2021/12/22 07:43:29;;;;;;;19.98;12.80;;;-0.40;99.90;;;-0.58;75.17;102340.53;4845190;29;20220;-68
2021/12/22 07:46:02;;;;;;;18.17;13.35;;;-0.30;99.90;;;-0.45;76.81;102336.16;4843920;29;20212;-69
2021/12/22 07:48:31;;;;;;;21.80;14.50;;;-0.30;99.90;;;-0.33;75.18;102338.97;4860003;29;20272;-68
2021/12/22 07:50:59;;;;;;;22.13;14.20;;;-0.20;99.90;;;-0.41;74.44;102333.31;4862654;29;20228;-69
2021/12/22 07:53:28;;;;;;;29.90;13.60;;;-0.20;99.90;;;-0.37;74.98;102337.47;4862412;29;20219;-70
2021/12/22 07:55:56;;;;;;;27.70;14.15;;;-0.20;99.90;;;-0.25;74.11;102331.41;4860267;29;20243;-68
2021/12/22 07:58:26;;;;;;;18.77;12.00;;;-0.10;99.90;;;-0.26;73.43;102327.03;4862192;29;20266;-68
2021/12/22 08:00:57;;;;;;;20.35;14.00;;;-0.10;99.90;;;-0.37;74.36;102326.84;4862160;29;20192;-68
2021/12/22 08:03:27;;;;;;;19.63;13.20;;;-0.10;99.90;;;-0.23;73.81;102325.00;4861058;29;20227;-69
2021/12/22 08:06:11;;;;;;;21.60;15.75;;;-0.10;99.90;;;-0.08;73.13;102321.38;4852209;29;20199;-68
2021/12/22 08:08:39;;;;;;;27.35;13.35;;;0.00;99.90;;;0.02;72.81;102334.06;4852890;29;20260;-68
2021/12/22 08:11:08;;;;;;;21.17;12.65;;;0.00;99.90;;;-0.04;72.44;102335.31;4863732;29;20199;-66
2021/12/22 08:13:37;;;;;;;23.23;13.70;;;0.10;99.90;;;0.20;72.20;102338.19;4862053;29;20252;-67
2021/12/22 08:16:09;;;;;;;23.45;16.92;;;0.20;99.90;;;0.31;71.41;102347.19;4857185;29;20669;-70
2021/12/22 08:18:40;;;;;;;20.60;15.18;;;0.40;99.90;;;0.53;70.78;102345.78;4845605;29;20197;-68
2021/12/22 08:21:08;;;;;;;18.13;13.50;;;0.40;99.90;;;0.51;70.45;102347.69;4845845;29;20180;-69
2021/12/22 08:23:39;;;;;;;21.30;13.95;;;0.50;99.90;;;0.53;70.51;102344.00;4846279;29;20226;-68
2021/12/22 08:26:08;;;;;;;26.40;15.38;;;0.50;99.90;;;0.77;69.83;102346.81;4855416;29;20224;-67
2021/12/22 08:28:37;;;;;;;21.83;13.95;;;0.70;99.90;;;0.56;69.89;102345.59;4866441;29;20203;-68
2021/12/22 08:31:06;;;;;;;23.20;17.23;;;0.60;99.90;;;0.59;69.80;102346.22;4868063;29;20187;-68
2021/12/22 08:33:43;;;;;;;22.33;13.73;;;0.60;99.90;;;0.55;69.43;102339.41;4869034;29;20219;-69
2021/12/22 08:39:04;;;;;;;26.70;15.27;;;0.60;99.90;;;0.61;69.26;102336.31;4846697;29;20172;-70
2021/12/22 08:41:39;;;;;;;22.73;14.00;;;0.70;99.90;;;0.63;68.85;102341.56;4846158;29;20280;-68
2021/12/22 08:44:11;;;;;;;22.83;13.05;;;0.70;99.90;;;0.69;69.01;102336.66;4844324;29;20321;-69
2021/12/22 08:46:46;;;;;;;24.98;15.20;;;0.70;99.90;;;0.93;68.43;102334.13;4846151;29;20278;-69
2021/12/22 08:49:16;;;;;;;22.45;14.48;;;0.80;99.90;;;0.84;68.53;102338.28;4860866;29;20340;-68
2021/12/22 08:51:47;;;;;;;20.33;15.10;;;0.90;99.90;;;0.88;68.35;102336.25;4862602;29;20211;-68
2021/12/22 08:54:16;;;;;;;23.45;15.30;;;1.00;99.90;;;1.01;68.14;102337.16;4855765;29;20231;-67
2021/12/22 08:56:45;;;;;;;22.90;14.45;;;1.00;99.90;;;1.14;68.16;102335.34;4853516;29;20196;-69
2021/12/22 08:59:16;;;;;;;25.05;15.15;;;1.10;99.90;;;1.29;67.90;102334.28;4858816;29;20192;-68
2021/12/22 09:01:45;;;;;;;23.27;16.15;;;1.20;99.90;;;1.30;67.51;102322.66;4842408;29;20827;-66
2021/12/22 09:04:13;;;;;;;22.02;13.95;;;1.30;99.90;;;1.39;67.67;102328.28;4846232;29;20203;-69
2021/12/22 09:06:43;;;;;;;24.70;14.32;;;1.40;99.90;;;1.45;66.87;102326.03;4846921;29;20207;-65
2021/12/22 09:09:14;;;;;;;27.35;15.00;;;1.50;99.90;;;1.40;66.62;102327.34;4859507;29;20202;-68
2021/12/22 09:11:43;;;;;;;24.05;15.35;;;1.50;99.90;;;1.31;67.13;102321.66;4844486;29;20248;-66
2021/12/22 09:14:20;;;;;;;25.30;17.50;;;1.50;99.90;;;1.31;67.14;102329.66;4848870;29;20268;-68
2021/12/22 09:16:50;;;;;;;24.63;16.23;;;1.40;99.90;;;1.16;67.42;102325.41;4852003;29;20188;-67
2021/12/22 09:19:19;;;;;;;25.55;17.17;;;1.30;99.90;;;1.18;67.87;102323.50;4852732;29;20200;-67
2021/12/22 09:21:48;;;;;;;28.60;17.35;;;1.30;99.90;;;1.24;67.70;102317.72;4843232;29;20646;-67
2021/12/22 09:24:18;;;;;;;26.65;19.48;;;1.30;99.90;;;1.26;67.38;102318.47;4843613;29;20232;-70
2021/12/22 09:26:48;;;;;;;30.70;17.40;;;1.30;99.90;;;1.35;67.17;102319.66;4851667;29;20219;-66
2021/12/22 09:29:16;;;;;;;24.13;16.23;;;1.40;99.90;;;1.35;67.15;102318.78;4863281;29;20250;-66
2021/12/22 09:31:45;;;;;;;28.38;18.63;;;1.40;99.90;;;1.40;66.79;102311.31;4865908;29;20180;-67
2021/12/22 09:34:13;;;;;;;24.80;16.63;;;1.40;99.90;;;1.28;66.61;102319.22;4858131;29;20216;-69
2021/12/22 09:36:43;;;;;;;29.40;18.58;;;1.40;99.90;;;1.37;66.68;102316.84;4859435;29;20195;-67
2021/12/22 09:39:12;;;;;;;25.55;17.42;;;1.40;99.90;;;1.33;66.55;102316.22;4847549;29;20252;-68
2021/12/22 09:41:42;;;;;;;23.50;16.50;;;1.40;99.90;;;1.40;65.94;102319.31;4865758;29;20195;-68
2021/12/22 09:44:10;;;;;;;28.35;19.60;;;1.40;99.90;;;1.34;66.00;102312.59;4862251;29;20219;-68
2021/12/22 09:46:40;;;;;;;28.67;18.10;;;1.40;99.90;;;1.37;65.57;102307.03;4855830;29;20569;-68
2021/12/22 09:49:24;;;;;;;27.65;19.67;;;1.40;99.90;;;1.41;65.88;102302.34;4852442;29;20226;-68
2021/12/22 09:54:42;;;;;;;35.85;19.77;;;1.40;99.90;;;1.34;66.13;102301.09;4846281;29;20756;-68
2021/12/22 09:57:15;;;;;;;26.90;18.25;;;1.30;99.90;;;1.42;66.31;102291.56;4854788;29;20256;-67
2021/12/22 09:59:44;;;;;;;24.08;17.90;;;1.40;99.90;;;1.71;65.18;102294.81;4861099;29;20184;-66
2021/12/22 10:02:14;;;;;;;25.95;19.75;;;1.70;99.90;;;1.74;65.11;102292.75;4862760;29;20270;-68
2021/12/22 10:04:43;;;;;;;27.55;19.60;;;1.80;99.90;;;1.89;65.23;102287.31;4859371;29;20218;-66
2021/12/22 10:07:17;;;;;;;27.60;19.83;;;1.80;99.90;;;2.00;64.61;102288.19;4849318;29;20200;-66
2021/12/22 10:09:47;;;;;;;32.45;17.45;;;2.00;99.90;;;1.82;64.88;102294.91;4844721;29;20280;-66
2021/12/22 10:12:20;;;;;;;25.98;17.45;;;1.90;99.90;;;1.56;64.96;102291.44;4844774;29;20284;-68
2021/12/22 10:14:56;;;;;;;27.30;18.63;;;1.70;99.90;;;1.82;64.79;102286.88;4844872;29;20279;-67
2021/12/22 10:17:37;;;;;;;31.95;18.92;;;1.70;99.90;;;2.01;64.53;102292.56;4861533;29;20263;-67
2021/12/22 10:20:14;;;;;;;34.80;21.50;;;2.00;99.90;;;1.88;64.04;102289.13;4861467;29;20203;-66
2021/12/22 10:22:47;;;;;;;31.95;20.70;;;2.00;99.90;;;1.89;64.08;102293.47;4863177;29;20187;-67
2021/12/22 10:25:21;;;;;;;25.75;20.88;;;1.90;99.90;;;1.64;64.63;102288.22;4848320;29;20195;-70
2021/12/22 10:28:02;;;;;;;30.63;20.77;;;1.70;99.90;;;1.67;65.03;102282.66;4860244;29;20251;-68
2021/12/22 10:30:34;;;;;;;32.33;21.15;;;1.70;99.90;;;1.82;64.40;102284.22;4862145;29;20287;-69
2021/12/22 10:33:13;;;;;;;26.08;18.65;;;1.80;99.90;;;1.85;64.24;102281.31;4843052;29;20263;-69
2021/12/22 10:35:45;;;;;;;28.98;21.30;;;1.90;99.90;;;1.72;64.43;102280.50;4856911;29;20195;-66
2021/12/22 10:38:16;;;;;;;29.25;19.70;;;1.80;99.90;;;1.97;63.72;102279.56;4845262;29;20214;-67
2021/12/22 10:40:48;;;;;;;30.85;20.65;;;1.90;99.90;;;1.99;64.07;102278.47;4851022;29;20299;-69